Time;durP1;ratioP1;P1;durP2;ratioP2;P2;SDS_P1;SDS_P2;PMS_P1;PMS_P2;Temp;Humidity;BMP_temperature;BMP_pressure;BME280_temperature;BME280_humidity;BME280_pressure;Samples;Min_cycle;Max_cycle;Signal;HPM_P1;HPM_P2
2022/03/13 00:00:11;;;;;;;19.67;17.77;;;8.00;31.80;;;;;;20642;6755;276311;-80
2022/03/13 00:02:45;;;;;;;20.80;18.57;;;8.40;31.10;;;;;;20314;6811;310333;-81
2022/03/13 00:05:18;;;;;;;19.33;17.30;;;8.70;30.60;;;;;;20841;6755;116908;-79
2022/03/13 00:07:56;;;;;;;18.83;16.83;;;8.50;30.50;;;;;;20826;6766;117918;-79
2022/03/13 00:10:31;;;;;;;20.67;17.67;;;8.20;30.80;;;;;;20765;6781;116627;-79
2022/03/13 00:13:14;;;;;;;22.40;20.13;;;7.90;31.70;;;;;;20676;6745;278743;-79
2022/03/13 00:15:42;;;;;;;21.87;19.77;;;8.10;31.40;;;;;;20686;6747;283115;-79
2022/03/13 00:18:17;;;;;;;21.83;19.53;;;8.40;31.50;;;;;;20733;6740;275511;-79
2022/03/13 00:20:54;;;;;;;20.73;18.47;;;8.70;30.80;;;;;;20833;6740;117817;-79
2022/03/13 00:23:29;;;;;;;24.27;21.77;;;8.50;30.70;;;;;;20646;6759;307096;-79
2022/03/13 00:26:05;;;;;;;23.27;18.03;;;8.40;30.50;;;;;;20834;6768;116849;-80
2022/03/13 00:28:41;;;;;;;22.35;20.12;;;8.20;30.40;;;;;;20607;6762;338066;-79
2022/03/13 00:31:16;;;;;;;20.13;18.00;;;8.30;30.60;;;;;;20827;6765;117363;-79
2022/03/13 00:33:52;;;;;;;21.33;19.23;;;8.10;30.90;;;;;;20739;6725;334596;-79
2022/03/13 00:36:28;;;;;;;20.50;18.48;;;8.10;30.90;;;;;;20721;6725;305457;-79
2022/03/13 00:39:04;;;;;;;20.33;18.33;;;8.40;30.40;;;;;;20710;6751;277468;-80
2022/03/13 00:41:49;;;;;;;21.30;19.07;;;8.50;30.00;;;;;;20610;6744;308564;-79
2022/03/13 00:44:15;;;;;;;20.97;18.87;;;8.70;30.20;;;;;;20699;6744;315228;-79
2022/03/13 00:46:50;;;;;;;18.73;16.73;;;8.80;30.00;;;;;;20936;6733;119533;-79
2022/03/13 00:49:26;;;;;;;17.77;15.87;;;8.50;30.20;;;;;;20920;6729;117005;-79
2022/03/13 00:52:03;;;;;;;20.17;16.50;;;8.00;30.80;;;;;;20847;6720;117824;-82
2022/03/13 00:54:37;;;;;;;23.33;17.37;;;7.70;31.30;;;;;;20961;6723;117121;-79
2022/03/13 00:57:13;;;;;;;21.15;18.95;;;7.40;31.60;;;;;;20733;6723;334406;-81
2022/03/13 00:59:50;;;;;;;22.20;20.00;;;7.60;32.30;;;;;;20725;6719;307611;-80
2022/03/13 01:02:25;;;;;;;20.23;18.07;;;7.90;31.70;;;;;;20801;6727;117706;-79
2022/03/13 01:05:01;;;;;;;20.03;17.27;;;7.80;31.40;;;;;;20904;6748;117480;-79
2022/03/13 01:07:36;;;;;;;23.53;18.33;;;7.50;31.70;;;;;;20855;6807;117794;-80
2022/03/13 01:10:12;;;;;;;22.87;20.53;;;7.20;32.10;;;;;;20679;6748;309948;-79
2022/03/13 01:12:48;;;;;;;22.73;20.63;;;7.30;32.50;;;;;;20657;6740;317876;-80
2022/03/13 01:15:23;;;;;;;21.55;19.35;;;7.70;33.00;;;;;;20731;6725;326796;-80
2022/03/13 01:17:59;;;;;;;22.25;20.15;;;7.90;32.70;;;;;;20688;6742;275503;-79
2022/03/13 01:20:34;;;;;;;20.50;18.43;;;8.20;32.30;;;;;;20880;6751;117689;-80
2022/03/13 01:23:11;;;;;;;18.33;16.53;;;7.90;32.00;;;;;;20930;6722;117228;-79
2022/03/13 01:25:46;;;;;;;19.03;17.03;;;7.50;32.20;;;;;;20967;6723;116913;-80
2022/03/13 01:28:21;;;;;;;23.40;17.23;;;7.20;32.50;;;;;;20924;6774;117170;-79
2022/03/13 01:30:56;;;;;;;20.10;17.03;;;6.90;32.60;;;;;;20904;6718;116418;-81
2022/03/13 01:33:33;;;;;;;20.03;18.03;;;6.80;33.20;;;;;;20773;6716;308942;-81
2022/03/13 01:36:08;;;;;;;17.77;15.87;;;6.90;33.50;;;;;;20944;6723;117037;-79
2022/03/13 01:38:45;;;;;;;20.30;17.10;;;7.00;33.30;;;;;;20989;6731;116445;-79
2022/03/13 01:41:20;;;;;;;17.37;15.60;;;6.80;33.40;;;;;;20892;6717;116406;-80
2022/03/13 01:43:56;;;;;;;19.37;16.13;;;6.70;33.50;;;;;;20997;6716;121298;-79
2022/03/13 01:46:31;;;;;;;20.43;18.43;;;6.60;33.70;;;;;;20743;6722;307929;-79
2022/03/13 01:49:07;;;;;;;21.33;19.30;;;6.80;34.40;;;;;;20733;6722;311563;-80
2022/03/13 01:51:44;;;;;;;21.20;19.08;;;7.20;33.70;;;;;;20564;6754;277385;-80
2022/03/13 01:54:20;;;;;;;17.30;15.63;;;7.50;33.50;;;;;;20954;6719;116090;-79
2022/03/13 01:56:56;;;;;;;21.42;19.23;;;7.30;33.40;;;;;;20739;6732;305609;-80
2022/03/13 01:59:31;;;;;;;19.50;17.70;;;7.30;33.70;;;;;;20725;6726;334313;-80
2022/03/13 02:02:07;;;;;;;21.60;19.30;;;7.50;33.70;;;;;;20629;6726;307620;-79
2022/03/13 02:04:43;;;;;;;20.58;18.48;;;7.80;33.30;;;;;;20768;6719;299465;-79
2022/03/13 02:07:18;;;;;;;20.75;18.80;;;7.90;33.40;;;;;;20715;6726;307112;-80
2022/03/13 02:09:55;;;;;;;19.77;17.67;;;7.90;33.50;;;;;;20984;6718;117622;-80
2022/03/13 02:12:29;;;;;;;22.15;19.83;;;7.60;33.50;;;;;;20551;6787;308281;-80
2022/03/13 02:15:06;;;;;;;22.30;19.90;;;7.60;34.50;;;;;;20806;6762;117403;-80
2022/03/13 02:17:43;;;;;;;24.37;21.97;;;7.40;34.30;;;;;;20671;6750;291573;-80
2022/03/13 02:20:22;;;;;;;24.77;22.30;;;7.40;34.40;;;;;;20635;6753;336322;-79
2022/03/13 02:23:03;;;;;;;25.88;22.50;;;7.70;34.10;;;;;;20658;6740;328759;-80
2022/03/13 02:25:38;;;;;;;22.87;20.33;;;7.70;34.00;;;;;;20869;6747;117985;-80
2022/03/13 02:28:14;;;;;;;22.00;18.30;;;7.30;33.90;;;;;;20983;6717;116430;-79
2022/03/13 02:30:50;;;;;;;20.17;17.73;;;6.60;35.40;;;;;;20914;6719;117902;-79
2022/03/13 02:33:26;;;;;;;22.05;19.85;;;6.60;34.80;;;;;;20734;6722;307274;-81
2022/03/13 02:36:01;;;;;;;19.60;17.50;;;6.70;35.60;;;;;;20930;6732;117478;-81
2022/03/13 02:38:37;;;;;;;18.77;16.83;;;6.70;35.30;;;;;;20940;6732;116742;-82
2022/03/13 02:41:13;;;;;;;20.37;17.63;;;6.50;35.30;;;;;;20848;6732;118374;-81
2022/03/13 02:43:48;;;;;;;22.23;19.90;;;6.30;35.50;;;;;;20725;6732;313436;-84
2022/03/13 02:46:24;;;;;;;22.63;20.33;;;6.50;36.60;;;;;;20770;6722;312752;-80
2022/03/13 02:49:00;;;;;;;22.23;19.85;;;6.90;36.40;;;;;;20741;6776;275373;-80
2022/03/13 02:51:37;;;;;;;20.00;18.20;;;7.20;36.20;;;;;;20696;6721;306189;-80
2022/03/13 02:54:13;;;;;;;18.80;16.77;;;7.40;36.30;;;;;;20983;6731;116121;-80
2022/03/13 02:56:50;;;;;;;17.50;15.80;;;7.20;35.90;;;;;;20974;6732;116511;-80
2022/03/13 02:59:25;;;;;;;19.07;15.67;;;6.80;36.20;;;;;;20967;6729;116397;-80
2022/03/13 03:02:02;;;;;;;19.67;15.47;;;6.60;36.50;;;;;;20882;6717;116859;-81
2022/03/13 03:04:36;;;;;;;18.57;16.67;;;6.40;36.60;;;;;;20913;6735;120199;-80
2022/03/13 03:07:13;;;;;;;21.30;16.17;;;6.00;36.70;;;;;;20857;6755;119172;-79
2022/03/13 03:09:48;;;;;;;21.65;19.60;;;6.00;36.70;;;;;;20673;6738;276454;-81
2022/03/13 03:12:24;;;;;;;20.90;18.95;;;6.20;37.40;;;;;;20449;6766;309070;-79
2022/03/13 03:15:00;;;;;;;20.10;17.90;;;6.60;36.80;;;;;;20869;6744;117192;-80
2022/03/13 03:17:35;;;;;;;19.47;17.40;;;6.60;36.50;;;;;;21009;6708;117478;-79
2022/03/13 03:20:11;;;;;;;22.13;18.17;;;6.30;36.60;;;;;;20947;6779;117648;-79
2022/03/13 03:22:48;;;;;;;21.20;19.30;;;6.10;36.90;;;;;;20750;6723;310027;-80
2022/03/13 03:25:24;;;;;;;22.80;20.60;;;6.20;38.10;;;;;;20728;6722;305986;-80
2022/03/13 03:27:59;;;;;;;21.80;19.70;;;6.60;37.70;;;;;;20743;6726;306615;-79
2022/03/13 03:30:37;;;;;;;22.93;20.73;;;6.90;37.50;;;;;;20620;6742;308158;-81
2022/03/13 03:33:15;;;;;;;22.20;19.90;;;7.00;37.00;;;;;;20693;6736;334759;-79
2022/03/13 03:35:47;;;;;;;20.57;18.50;;;7.10;36.90;;;;;;20915;6741;116531;-80
2022/03/13 03:38:25;;;;;;;19.07;16.97;;;6.40;37.30;;;;;;20955;6727;117087;-79
2022/03/13 03:41:01;;;;;;;19.67;17.27;;;6.40;37.30;;;;;;20830;6741;117135;-79
2022/03/13 03:43:37;;;;;;;19.33;17.40;;;5.90;38.00;;;;;;20932;6736;118010;-79
2022/03/13 03:46:14;;;;;;;22.42;19.95;;;5.90;37.90;;;;;;20797;6714;278159;-79
2022/03/13 03:48:48;;;;;;;20.73;18.57;;;6.10;38.90;;;;;;21000;6714;120180;-79
2022/03/13 03:51:26;;;;;;;22.00;20.00;;;6.20;38.30;;;;;;20635;6726;280976;-82
2022/03/13 03:54:01;;;;;;;22.03;19.93;;;6.20;38.30;;;;;;20718;6731;308851;-79
2022/03/13 03:56:37;;;;;;;23.27;20.97;;;6.60;38.10;;;;;;20647;6804;278774;-79
2022/03/13 03:59:14;;;;;;;21.97;19.83;;;6.80;37.30;;;;;;20681;6751;285078;-81
2022/03/13 04:01:49;;;;;;;21.30;18.97;;;7.00;37.10;;;;;;20792;6742;117180;-83
2022/03/13 04:04:26;;;;;;;21.47;19.57;;;6.60;37.40;;;;;;20723;6731;305181;-79
2022/03/13 04:07:01;;;;;;;22.37;20.27;;;6.60;37.40;;;;;;20753;6731;275207;-83
2022/03/13 04:09:37;;;;;;;23.67;21.58;;;6.80;37.30;;;;;;20782;6730;303882;-80
2022/03/13 04:12:13;;;;;;;20.67;18.57;;;6.90;36.90;;;;;;20826;6731;117255;-79
2022/03/13 04:14:48;;;;;;;21.43;19.53;;;6.60;36.70;;;;;;20741;6737;306012;-80
2022/03/13 04:17:24;;;;;;;19.60;17.70;;;6.50;37.60;;;;;;20953;6740;119200;-80
2022/03/13 04:20:03;;;;;;;21.67;19.67;;;6.20;37.40;;;;;;20805;6722;275235;-80
2022/03/13 04:22:38;;;;;;;22.80;17.57;;;6.30;38.20;;;;;;21009;6722;116053;-80
2022/03/13 04:25:14;;;;;;;21.63;19.53;;;6.10;37.90;;;;;;20743;6726;304433;-80
2022/03/13 04:27:50;;;;;;;21.60;19.42;;;6.20;38.40;;;;;;20717;6737;310227;-80
2022/03/13 04:30:31;;;;;;;18.73;16.67;;;6.50;38.20;;;;;;20932;6726;117435;-80
2022/03/13 04:33:06;;;;;;;19.40;17.37;;;6.30;37.70;;;;;;20920;6732;119962;-80
2022/03/13 04:35:41;;;;;;;20.97;17.83;;;6.00;38.00;;;;;;20894;6747;116306;-80
2022/03/13 04:38:19;;;;;;;21.63;17.53;;;5.70;38.20;;;;;;20968;6722;117005;-80
2022/03/13 04:40:54;;;;;;;21.87;19.77;;;5.50;38.50;;;;;;20728;6716;277230;-80
2022/03/13 04:43:29;;;;;;;22.10;19.90;;;5.70;39.50;;;;;;20733;6721;304682;-80
2022/03/13 04:46:05;;;;;;;20.83;18.83;;;6.10;39.10;;;;;;20737;6731;276668;-80
2022/03/13 04:48:41;;;;;;;21.33;19.40;;;6.70;37.90;;;;;;20743;6730;275605;-80
2022/03/13 04:51:17;;;;;;;18.60;16.80;;;6.70;37.90;;;;;;20846;6730;117300;-80
2022/03/13 04:53:52;;;;;;;20.20;18.00;;;6.50;37.70;;;;;;20927;6737;116231;-80
2022/03/13 04:56:28;;;;;;;24.63;22.23;;;6.10;37.90;;;;;;20714;6737;323546;-80
2022/03/13 04:59:05;;;;;;;23.57;21.27;;;6.10;38.40;;;;;;20668;6744;283352;-80
2022/03/13 05:01:40;;;;;;;21.93;19.87;;;6.40;38.20;;;;;;20556;6746;311885;-80
2022/03/13 05:04:15;;;;;;;21.87;19.85;;;6.50;37.90;;;;;;20717;6736;282736;-80
2022/03/13 05:06:51;;;;;;;23.02;20.62;;;6.70;37.70;;;;;;20676;6746;334387;-80
2022/03/13 05:09:26;;;;;;;22.73;18.63;;;6.80;37.60;;;;;;20880;6746;117567;-80
2022/03/13 05:12:04;;;;;;;19.77;17.33;;;6.50;37.50;;;;;;20781;6731;117554;-80
2022/03/13 05:14:37;;;;;;;21.25;18.98;;;6.10;37.90;;;;;;20718;6730;307293;-80
2022/03/13 05:17:13;;;;;;;21.27;18.97;;;6.10;38.70;;;;;;20960;6720;116898;-80
2022/03/13 05:19:48;;;;;;;19.70;17.60;;;5.90;38.40;;;;;;20959;6730;121495;-80
2022/03/13 05:22:25;;;;;;;20.93;17.70;;;5.70;38.60;;;;;;20773;6727;116466;-80
2022/03/13 05:25:01;;;;;;;20.33;17.70;;;5.40;38.80;;;;;;20936;6727;117513;-81
2022/03/13 05:27:37;;;;;;;22.13;19.83;;;5.20;39.10;;;;;;20750;6724;276209;-80
2022/03/13 05:30:14;;;;;;;19.40;16.80;;;5.40;39.90;;;;;;20856;6753;117051;-80
2022/03/13 05:32:50;;;;;;;23.62;21.15;;;5.40;39.40;;;;;;20742;6728;276702;-81
2022/03/13 05:35:26;;;;;;;23.30;21.03;;;5.60;39.40;;;;;;20717;6727;307511;-80
2022/03/13 05:38:01;;;;;;;20.20;18.17;;;6.00;38.80;;;;;;20932;6736;116220;-80
2022/03/13 05:40:39;;;;;;;21.58;19.58;;;5.80;38.50;;;;;;20679;6734;336833;-80
2022/03/13 05:43:15;;;;;;;20.30;18.30;;;5.80;39.10;;;;;;20910;6734;117136;-81
2022/03/13 05:45:49;;;;;;;23.60;21.30;;;5.70;39.00;;;;;;20771;6721;333937;-81
2022/03/13 05:48:26;;;;;;;19.37;17.37;;;5.80;39.10;;;;;;20986;6712;117985;-81
2022/03/13 05:51:02;;;;;;;19.20;17.13;;;5.70;38.90;;;;;;20877;6731;117287;-81
2022/03/13 05:53:37;;;;;;;22.37;17.53;;;5.40;39.10;;;;;;20938;6741;66976;-81
2022/03/13 05:56:14;;;;;;;19.57;17.47;;;5.00;39.60;;;;;;20931;6741;116915;-82
2022/03/13 05:58:49;;;;;;;20.17;18.03;;;5.00;39.60;;;;;;20961;6726;67494;-81
2022/03/13 06:01:25;;;;;;;21.80;18.20;;;5.00;39.80;;;;;;20864;6723;120265;-81
2022/03/13 06:04:00;;;;;;;22.13;18.40;;;4.90;39.90;;;;;;20951;6719;121037;-81
2022/03/13 06:06:36;;;;;;;19.80;16.87;;;4.80;40.00;;;;;;20939;6732;116915;-80
2022/03/13 06:09:13;;;;;;;18.87;16.87;;;4.80;40.10;;;;;;20954;6721;116781;-81
2022/03/13 06:11:48;;;;;;;20.77;17.37;;;4.80;40.10;;;;;;20818;6738;117445;-81
2022/03/13 06:14:24;;;;;;;23.73;21.33;;;4.80;40.10;;;;;;20758;6721;279704;-81
2022/03/13 06:17:03;;;;;;;23.37;21.07;;;5.10;40.30;;;;;;20745;6721;305904;-82
2022/03/13 06:19:42;;;;;;;23.60;21.33;;;5.50;39.70;;;;;;20760;6721;323865;-81
2022/03/13 06:22:12;;;;;;;19.83;17.83;;;5.90;39.20;;;;;;20825;6721;117938;-82
2022/03/13 06:24:48;;;;;;;19.20;17.20;;;5.90;39.00;;;;;;20955;6740;121733;-85
2022/03/13 06:27:23;;;;;;;22.92;20.67;;;5.70;39.20;;;;;;20652;6750;308086;-83
2022/03/13 06:30:00;;;;;;;23.05;20.85;;;5.90;39.40;;;;;;20708;6739;292260;-80
2022/03/13 06:32:36;;;;;;;20.70;17.87;;;6.20;38.90;;;;;;20627;6825;117955;-80
2022/03/13 06:35:11;;;;;;;22.63;20.43;;;6.20;38.70;;;;;;20570;6822;306860;-80
2022/03/13 06:37:48;;;;;;;20.20;18.10;;;6.40;38.70;;;;;;20867;6757;116719;-81
2022/03/13 06:40:23;;;;;;;19.53;17.40;;;6.40;38.50;;;;;;20801;6807;117357;-79
2022/03/13 06:42:59;;;;;;;21.70;19.70;;;6.30;38.70;;;;;;20580;6761;302513;-81
2022/03/13 06:45:35;;;;;;;22.65;20.62;;;6.50;38.70;;;;;;20655;6751;335468;-79
2022/03/13 06:48:11;;;;;;;18.93;17.13;;;6.90;37.90;;;;;;20874;6738;117191;-79
2022/03/13 06:50:46;;;;;;;22.13;20.03;;;6.90;37.70;;;;;;20645;6747;322241;-77
2022/03/13 06:53:21;;;;;;;20.17;18.10;;;7.10;37.60;;;;;;20808;6753;121257;-81
2022/03/13 06:55:58;;;;;;;21.70;18.13;;;6.80;38.60;;;;;;20851;6753;119352;-78
2022/03/13 06:58:33;;;;;;;20.33;17.53;;;6.80;37.80;;;;;;20858;6753;117317;-79
2022/03/13 07:01:10;;;;;;;21.77;17.97;;;6.70;38.20;;;;;;20744;6750;117186;-77
2022/03/13 07:03:45;;;;;;;18.70;16.67;;;6.60;38.40;;;;;;20947;6725;117413;-76
2022/03/13 07:06:20;;;;;;;21.58;19.25;;;6.60;38.60;;;;;;20756;6717;334946;-77
2022/03/13 07:08:59;;;;;;;20.00;17.87;;;7.00;38.60;;;;;;20995;6717;117002;-78
2022/03/13 07:11:34;;;;;;;21.83;17.07;;;7.10;38.10;;;;;;20907;6717;116974;-78
2022/03/13 07:14:07;;;;;;;23.03;20.83;;;7.10;38.20;;;;;;20751;6722;307743;-78
2022/03/13 07:16:42;;;;;;;19.13;17.33;;;7.40;37.90;;;;;;21044;6713;116713;-78
2022/03/13 07:19:18;;;;;;;22.50;20.37;;;7.60;37.70;;;;;;20763;6709;306056;-78
2022/03/13 07:21:54;;;;;;;22.75;20.60;;;8.30;36.80;;;;;;20678;6721;336769;-78
2022/03/13 07:24:30;;;;;;;21.67;19.63;;;8.30;36.80;;;;;;20774;6721;305369;-78
2022/03/13 07:27:05;;;;;;;23.10;20.63;;;8.70;36.20;;;;;;20967;6721;117030;-78
2022/03/13 07:29:41;;;;;;;19.43;17.37;;;8.70;36.10;;;;;;20994;6721;118108;-78
2022/03/13 07:32:17;;;;;;;20.37;18.10;;;8.50;36.50;;;;;;20856;6721;116647;-78
2022/03/13 07:34:53;;;;;;;19.73;17.03;;;8.40;36.80;;;;;;21011;6717;119737;-79
2022/03/13 07:37:28;;;;;;;22.50;20.45;;;8.30;37.00;;;;;;20786;6712;276641;-78
2022/03/13 07:40:03;;;;;;;20.87;18.67;;;8.70;36.60;;;;;;20999;6717;116001;-78
2022/03/13 07:42:41;;;;;;;20.53;18.47;;;8.90;36.40;;;;;;20995;6717;116177;-77
2022/03/13 07:45:19;;;;;;;22.37;20.27;;;8.80;36.40;;;;;;20758;6717;309752;-81
2022/03/13 07:47:57;;;;;;;20.00;17.97;;;9.20;36.30;;;;;;20928;6734;117064;-79
2022/03/13 07:50:30;;;;;;;21.50;18.27;;;9.40;35.90;;;;;;20952;6711;116977;-76
2022/03/13 07:53:06;;;;;;;20.43;18.50;;;9.30;36.00;;;;;;20896;6714;121152;-76
2022/03/13 07:55:42;;;;;;;25.60;23.25;;;9.30;36.20;;;;;;20730;6721;316868;-76
2022/03/13 07:58:18;;;;;;;22.27;19.27;;;9.90;35.40;;;;;;20945;6729;116939;-76
2022/03/13 08:00:53;;;;;;;21.23;17.90;;;9.80;35.30;;;;;;20870;6737;117388;-76
2022/03/13 08:03:34;;;;;;;19.63;17.73;;;9.90;35.50;;;;;;20863;6754;117234;-77
2022/03/13 08:06:04;;;;;;;19.60;17.63;;;9.90;35.50;;;;;;20925;6745;116417;-77
2022/03/13 08:08:40;;;;;;;20.30;18.20;;;9.90;35.70;;;;;;20798;6778;116948;-76
2022/03/13 08:11:16;;;;;;;22.50;20.50;;;10.00;34.70;;;;;;20485;6779;444282;-77
2022/03/13 08:13:51;;;;;;;22.20;19.87;;;10.50;33.80;;;;;;20903;6734;117374;-76
2022/03/13 08:16:27;;;;;;;21.80;19.50;;;10.70;33.60;;;;;;20908;6729;118251;-76
2022/03/13 08:19:02;;;;;;;23.85;21.70;;;10.80;33.60;;;;;;20682;6749;339567;-75
2022/03/13 08:21:38;;;;;;;21.07;18.50;;;11.10;32.50;;;;;;20756;6751;120122;-77
2022/03/13 08:24:15;;;;;;;20.63;18.53;;;11.30;32.60;;;;;;20882;6740;117733;-77
2022/03/13 08:26:49;;;;;;;21.07;18.87;;;11.40;32.90;;;;;;20948;6722;117212;-76
2022/03/13 08:29:26;;;;;;;19.80;17.90;;;11.50;33.00;;;;;;20942;6729;116265;-80
2022/03/13 08:32:02;;;;;;;20.67;18.60;;;11.60;33.20;;;;;;20855;6717;117868;-77
2022/03/13 08:34:39;;;;;;;20.67;18.47;;;11.70;33.30;;;;;;20946;6739;116729;-76
2022/03/13 08:37:13;;;;;;;21.37;19.45;;;11.70;33.10;;;;;;20693;6739;305821;-77
2022/03/13 08:39:48;;;;;;;20.83;19.02;;;12.10;32.10;;;;;;20711;6753;277960;-78
2022/03/13 08:42:26;;;;;;;19.83;18.02;;;12.70;30.50;;;;;;20609;6720;309565;-80
2022/03/13 08:45:01;;;;;;;20.67;18.77;;;13.20;29.30;;;;;;20696;6736;308436;-77
2022/03/13 08:47:37;;;;;;;19.37;17.65;;;13.60;29.10;;;;;;20748;6735;276717;-77
2022/03/13 08:50:15;;;;;;;18.93;16.93;;;13.90;29.00;;;;;;20920;6734;117118;-76
2022/03/13 08:52:50;;;;;;;21.53;17.43;;;13.80;29.00;;;;;;21041;6706;117260;-77
2022/03/13 08:55:27;;;;;;;20.60;18.62;;;13.60;29.30;;;;;;20796;6706;334471;-78
2022/03/13 08:58:03;;;;;;;22.53;20.43;;;14.20;29.20;;;;;;20806;6706;308034;-77
2022/03/13 09:00:41;;;;;;;20.97;19.17;;;14.20;29.20;;;;;;20722;6777;290891;-78
2022/03/13 09:03:15;;;;;;;17.33;15.67;;;14.50;29.20;;;;;;20977;6726;117621;-77
2022/03/13 09:05:50;;;;;;;19.63;17.80;;;14.60;29.40;;;;;;20788;6712;307204;-78
2022/03/13 09:08:29;;;;;;;20.30;18.60;;;14.80;29.20;;;;;;20643;6712;275675;-79
2022/03/13 09:11:12;;;;;;;19.60;17.80;;;15.20;28.70;;;;;;20875;6712;117865;-79
2022/03/13 09:13:47;;;;;;;18.93;17.27;;;15.40;28.80;;;;;;20981;6712;116467;-77
2022/03/13 09:16:24;;;;;;;19.33;17.70;;;15.20;28.80;;;;;;20761;6712;280819;-79
2022/03/13 09:19:00;;;;;;;20.63;18.73;;;15.30;28.30;;;;;;20747;6712;308070;-80
2022/03/13 09:21:38;;;;;;;19.93;17.93;;;15.70;27.90;;;;;;20854;6712;117568;-80
2022/03/13 09:24:11;;;;;;;20.77;18.98;;;15.80;28.10;;;;;;20784;6712;275976;-80
2022/03/13 09:26:47;;;;;;;19.53;17.53;;;15.90;27.50;;;;;;20963;6712;118276;-80
2022/03/13 09:29:24;;;;;;;19.90;17.97;;;15.90;27.70;;;;;;20979;6698;124470;-80
2022/03/13 09:31:59;;;;;;;18.90;17.30;;;15.70;27.80;;;;;;20556;6698;336258;-79
2022/03/13 09:34:35;;;;;;;18.67;16.83;;;15.90;26.40;;;;;;21002;6698;117249;-79
2022/03/13 09:37:11;;;;;;;19.10;17.48;;;15.80;26.50;;;;;;20779;6698;339095;-80
2022/03/13 09:39:47;;;;;;;17.10;15.40;;;16.00;26.40;;;;;;21000;6698;117467;-80
2022/03/13 09:42:22;;;;;;;17.80;16.10;;;16.00;26.40;;;;;;20924;6698;116787;-78
2022/03/13 09:44:59;;;;;;;17.87;14.73;;;15.90;26.70;;;;;;21046;6698;117059;-80
2022/03/13 09:47:35;;;;;;;18.45;16.75;;;15.80;26.70;;;;;;20846;6698;274962;-79
2022/03/13 09:50:20;;;;;;;17.90;16.10;;;16.00;24.70;;;;;;21060;6698;116185;-79
2022/03/13 09:52:48;;;;;;;17.80;16.25;;;16.20;25.00;;;;;;20775;6722;308440;-80
2022/03/13 09:55:24;;;;;;;17.03;15.47;;;16.20;24.70;;;;;;20969;6717;116978;-80
2022/03/13 09:57:59;;;;;;;16.93;15.33;;;16.30;25.10;;;;;;20915;6734;116334;-79
2022/03/13 10:00:36;;;;;;;18.03;16.33;;;16.10;25.40;;;;;;20853;6733;117448;-79
2022/03/13 10:03:13;;;;;;;16.50;14.87;;;16.00;25.80;;;;;;20977;6730;117662;-79
2022/03/13 10:05:48;;;;;;;18.02;16.33;;;16.30;25.20;;;;;;20685;6741;277488;-81
2022/03/13 10:08:30;;;;;;;19.30;17.50;;;16.30;25.30;;;;;;20679;6747;331341;-79
2022/03/13 10:11:09;;;;;;;16.97;15.43;;;16.70;24.80;;;;;;20796;6734;121326;-79
2022/03/13 10:13:41;;;;;;;17.67;15.90;;;16.90;25.20;;;;;;20935;6726;117159;-80
2022/03/13 10:16:19;;;;;;;16.50;14.97;;;16.80;25.40;;;;;;20935;6726;117723;-82
2022/03/13 10:18:54;;;;;;;17.60;16.00;;;16.60;25.60;;;;;;20729;6721;337510;-81
2022/03/13 10:21:29;;;;;;;18.00;16.48;;;16.90;25.50;;;;;;20653;6726;306707;-83
2022/03/13 10:24:10;;;;;;;16.87;15.27;;;17.30;25.00;;;;;;20983;6722;116557;-80
2022/03/13 10:26:45;;;;;;;18.25;16.75;;;17.40;25.00;;;;;;20618;6764;336677;-77
2022/03/13 10:29:31;;;;;;;21.77;19.73;;;17.60;25.00;;;;;;20677;6734;310690;-79
2022/03/13 10:32:06;;;;;;;18.73;16.93;;;17.90;24.60;;;;;;20754;6743;118798;-77
2022/03/13 10:34:42;;;;;;;18.83;16.93;;;17.90;24.90;;;;;;20856;6743;117354;-77
2022/03/13 10:37:18;;;;;;;16.17;14.70;;;17.50;25.00;;;;;;20824;6734;117942;-77
2022/03/13 10:40:14;;;;;;;16.70;15.03;;;17.50;25.00;;;;;;20945;6729;117538;-76
2022/03/13 10:42:50;;;;;;;17.20;15.47;;;17.40;25.20;;;;;;20913;6729;117158;-77
2022/03/13 10:45:33;;;;;;;16.53;14.83;;;17.30;25.30;;;;;;20908;6730;116253;-77
2022/03/13 10:48:23;;;;;;;16.77;15.17;;;17.30;25.50;;;;;;20875;6744;117884;-77
2022/03/13 10:50:58;;;;;;;17.92;16.33;;;17.30;25.50;;;;;;20602;6749;307862;-77
2022/03/13 10:53:34;;;;;;;18.53;16.90;;;17.60;25.10;;;;;;20486;6734;282603;-78
2022/03/13 10:56:12;;;;;;;19.43;17.73;;;18.00;24.50;;;;;;20608;6762;329077;-79
2022/03/13 10:58:49;;;;;;;19.37;17.47;;;18.30;24.10;;;;;;20914;6778;120246;-79
2022/03/13 11:01:25;;;;;;;17.30;15.60;;;18.30;24.30;;;;;;20791;6734;121876;-78
2022/03/13 11:04:06;;;;;;;17.87;16.10;;;18.20;24.60;;;;;;20940;6722;118855;-76
2022/03/13 11:06:41;;;;;;;18.20;16.60;;;17.90;24.50;;;;;;20972;6722;119068;-76
2022/03/13 11:09:22;;;;;;;17.60;15.83;;;17.70;24.60;;;;;;20889;6745;118601;-78
2022/03/13 11:12:09;;;;;;;16.87;15.13;;;17.60;24.90;;;;;;20696;6797;118870;-75
2022/03/13 11:14:34;;;;;;;19.30;17.42;;;17.50;25.00;;;;;;20680;6738;280434;-75
2022/03/13 11:17:12;;;;;;;20.37;18.53;;;18.10;23.80;;;;;;20620;6796;277325;-77
2022/03/13 11:19:55;;;;;;;19.73;17.83;;;18.00;23.70;;;;;;20976;6644;66249;31
2022/03/13 11:22:29;;;;;;;20.70;18.63;;;18.10;23.90;;;;;;20510;6789;307270;-72
2022/03/13 11:25:07;;;;;;;19.92;18.05;;;18.20;24.10;;;;;;20550;6771;338117;-78
2022/03/13 11:27:44;;;;;;;19.50;17.50;;;18.50;24.30;;;;;;20763;6778;118354;-72
2022/03/13 11:30:19;;;;;;;18.67;16.93;;;18.60;24.40;;;;;;20741;6774;117464;-72
2022/03/13 11:32:55;;;;;;;20.17;18.37;;;18.50;24.60;;;;;;20633;6751;306872;-72
2022/03/13 11:35:30;;;;;;;19.83;17.90;;;18.70;23.80;;;;;;20910;6733;117470;-70
2022/03/13 11:38:06;;;;;;;22.67;20.48;;;18.70;23.90;;;;;;20707;6733;309000;-78
2022/03/13 11:40:42;;;;;;;21.40;19.20;;;18.80;23.40;;;;;;20848;6733;118339;-73
2022/03/13 11:43:17;;;;;;;20.40;18.37;;;18.80;23.80;;;;;;20935;6718;119803;-77
2022/03/13 11:45:53;;;;;;;21.60;19.55;;;18.60;24.00;;;;;;20685;6733;310878;-70
2022/03/13 11:48:32;;;;;;;20.50;18.10;;;18.70;24.00;;;;;;20897;6733;117731;-71
2022/03/13 11:51:08;;;;;;;22.13;19.20;;;18.70;23.60;;;;;;20781;6733;117703;-72
2022/03/13 11:53:45;;;;;;;22.80;20.70;;;18.70;23.80;;;;;;20738;6718;305337;-71
2022/03/13 11:56:24;;;;;;;21.60;19.60;;;18.70;23.80;;;;;;20945;6718;117227;-73
2022/03/13 11:58:59;;;;;;;22.27;19.00;;;18.70;23.90;;;;;;20948;6718;117906;-69
2022/03/13 12:01:38;;;;;;;21.10;18.93;;;18.60;24.00;;;;;;20816;6718;117594;-75
2022/03/13 12:04:14;;;;;;;23.58;21.08;;;18.50;24.10;;;;;;20735;6718;304786;-74
2022/03/13 12:06:49;;;;;;;22.63;20.43;;;18.60;23.60;;;;;;20952;6718;124428;-71
2022/03/13 12:09:26;;;;;;;21.53;19.33;;;18.50;23.80;;;;;;20887;6733;117232;-74
2022/03/13 12:12:07;;;;;;;22.00;18.50;;;18.40;23.70;;;;;;20757;6733;117906;-74
2022/03/13 12:15:06;;;;;;;19.73;17.63;;;18.30;23.90;;;;;;20909;6733;117388;-72
2022/03/13 12:17:45;;;;;;;23.23;20.93;;;18.20;24.10;;;;;;20710;6730;276738;-74
2022/03/13 12:20:24;;;;;;;21.23;19.03;;;18.50;23.70;;;;;;20870;6733;117272;-75
2022/03/13 12:22:59;;;;;;;20.20;18.00;;;18.50;23.70;;;;;;20896;6732;118109;-69
2022/03/13 12:25:38;;;;;;;19.43;17.40;;;18.30;23.90;;;;;;20962;6718;117271;-71
2022/03/13 12:28:11;;;;;;;20.93;18.73;;;18.20;24.50;;;;;;20971;6718;117104;-70
2022/03/13 12:30:46;;;;;;;22.60;20.40;;;18.20;23.90;;;;;;20674;6718;308983;-71
2022/03/13 12:33:23;;;;;;;22.65;20.48;;;18.40;23.80;;;;;;20682;6718;339993;-69
2022/03/13 12:36:02;;;;;;;20.37;18.33;;;18.70;22.90;;;;;;20953;6718;122870;-70
2022/03/13 12:38:34;;;;;;;21.17;19.03;;;18.70;22.90;;;;;;20932;6718;117222;-69
2022/03/13 12:41:09;;;;;;;22.20;20.10;;;18.50;23.20;;;;;;20580;6723;307205;-70
2022/03/13 12:43:52;;;;;;;24.43;18.90;;;18.60;22.90;;;;;;20984;6714;117404;-67
2022/03/13 12:46:27;;;;;;;19.53;17.60;;;18.60;23.00;;;;;;20963;6714;117239;-68
2022/03/13 12:49:02;;;;;;;21.60;19.23;;;18.40;23.00;;;;;;20750;6714;334863;-69
2022/03/13 12:51:46;;;;;;;21.75;19.80;;;18.70;22.40;;;;;;20616;6714;335684;-72
2022/03/13 12:54:21;;;;;;;22.57;20.40;;;18.70;22.40;;;;;;20748;6714;310397;-72
2022/03/13 12:57:06;;;;;;;23.17;21.07;;;19.00;22.60;;;;;;20770;6714;279684;-74
2022/03/13 12:59:45;;;;;;;22.67;20.67;;;19.20;22.70;;;;;;20700;6729;306600;-72
2022/03/13 13:02:21;;;;;;;22.27;20.27;;;19.40;22.30;;;;;;20696;6729;306536;-72
2022/03/13 13:04:54;;;;;;;19.93;18.03;;;19.50;22.30;;;;;;20909;6729;117553;-74
2022/03/13 13:07:36;;;;;;;21.00;17.50;;;19.40;22.40;;;;;;20919;6729;117429;-73